»·PEaware :: N310LD KHND-KRNO

N310LD :: KHND-KRNO

FLIGHT INFORMATION

Flight Status: Arrived
Operator: Privately registered:
United States
More flights under this callsign
Pilot: Slade E. (12022)
Aircraft: CESSNA 310
(C310)
More flights by this aircraft type
Origin: KHND Henderson
United States
Destination: KRNO Reno/Tahoe Intl
United States
More flights between these airports :: More routes between these airports
Route: HIDEN V105 FMG
File this flight plan on PilotEdge
Remarks:
Altitude:
(Current/Filed)
14,000ft
Speed:
(Current/Filed)
180kts
Departed: 12-Nov-20 03:01 PM
Arrived: 12-Nov-20 04:49 PM
Distance/Time
Traveled:
305nm/1:48
Distance/Time
To Go:
Arrived

Flight Plot

Page will automatically refresh every two minutes.

Flight plan parsing failed; only flown route is shown


Map Options




Map Legend


Flown Route
Filed Route
Departure Airport
Arrival Airport
Navaid (VOR, NDB)
Fix

Horizontal Profiles

Position Reports

Time Latitude Longitude Heading Altitude Ground
Speed
12-Nov-20 14:44 35.974697 -115.137874 180 2420ft 0kts
12-Nov-20 14:45 35.974697 -115.137874 180 2420ft 0kts
12-Nov-20 14:49 35.974697 -115.137874 180 2420ft 0kts
12-Nov-20 14:50 35.974696 -115.137874 180 2420ft 0kts
12-Nov-20 14:51 35.974696 -115.137874 180 2420ft 0kts
12-Nov-20 14:52 35.974696 -115.137874 180 2420ft 0kts
12-Nov-20 14:53 35.974696 -115.137874 180 2420ft 0kts
12-Nov-20 14:54 35.974696 -115.137874 180 2420ft 0kts
12-Nov-20 14:55 35.974696 -115.137874 180 2420ft 0kts
12-Nov-20 14:56 35.974440 -115.137306 91 2422ft 0kts
12-Nov-20 14:57 35.971931 -115.136462 180 2436ft 16kts
12-Nov-20 14:58 35.966308 -115.136530 178 2459ft 23kts
12-Nov-20 14:59 35.963474 -115.136535 177 2470ft 0kts
12-Nov-20 15:00 35.968317 -115.135502 0 2453ft 95kts
12-Nov-20 15:01 35.999788 -115.126356 66 3399ft 139kts
12-Nov-20 15:02 35.973457 -115.107193 191 4604ft 142kts
12-Nov-20 15:03 35.933814 -115.116681 189 5656ft 146kts
12-Nov-20 15:04 35.894133 -115.126364 191 6634ft 146kts
12-Nov-20 15:05 35.854319 -115.135967 189 7499ft 147kts
12-Nov-20 15:06 35.832688 -115.172139 281 8201ft 155kts
12-Nov-20 15:07 35.841269 -115.223452 278 9231ft 153kts
12-Nov-20 15:08 35.849902 -115.273735 278 10358ft 147kts
12-Nov-20 15:09 35.859508 -115.322785 281 11327ft 147kts
12-Nov-20 15:10 35.871364 -115.371247 285 11986ft 158kts
12-Nov-20 15:11 35.886858 -115.426922 284 11991ft 179kts
12-Nov-20 15:12 35.902451 -115.486283 283 11995ft 184kts
12-Nov-20 15:13 35.915194 -115.548014 279 11969ft 186kts
12-Nov-20 15:14 35.927207 -115.606781 284 12727ft 168kts
12-Nov-20 15:15 35.941062 -115.660108 282 13521ft 160kts
12-Nov-20 15:16 35.954455 -115.712874 283 13995ft 172kts
12-Nov-20 15:17 35.969039 -115.771847 279 13971ft 186kts
12-Nov-20 15:18 35.984730 -115.833395 283 14002ft 188kts
12-Nov-20 15:19 36.000370 -115.895483 282 14006ft 189kts
12-Nov-20 15:20 36.015533 -115.957421 282 14006ft 188kts
12-Nov-20 15:21 36.037178 -116.015838 311 14005ft 197kts
12-Nov-20 15:22 36.079955 -116.058688 316 14009ft 199kts
12-Nov-20 15:23 36.124013 -116.100444 316 14004ft 199kts
12-Nov-20 15:24 36.167963 -116.142047 316 14005ft 199kts
12-Nov-20 15:25 36.211770 -116.183571 316 14003ft 199kts
12-Nov-20 15:26 36.255663 -116.225233 316 14001ft 199kts
12-Nov-20 15:27 36.299710 -116.267119 317 14003ft 199kts
12-Nov-20 15:28 36.343759 -116.309041 317 14004ft 199kts
12-Nov-20 15:29 36.387692 -116.350925 317 14004ft 200kts
12-Nov-20 15:30 36.431777 -116.393032 317 14005ft 200kts
12-Nov-20 15:31 36.475873 -116.435181 317 14005ft 200kts
12-Nov-20 15:32 36.519851 -116.477299 317 14005ft 200kts
12-Nov-20 15:33 36.564006 -116.519639 317 14005ft 200kts
12-Nov-20 15:34 36.607993 -116.561907 317 14007ft 200kts
12-Nov-20 15:35 36.652247 -116.604454 317 14009ft 201kts
12-Nov-20 15:36 36.696319 -116.646921 318 14007ft 201kts
12-Nov-20 15:37 36.740669 -116.689691 317 14008ft 201kts
12-Nov-20 15:38 36.784915 -116.732438 317 14008ft 202kts
12-Nov-20 15:39 36.830995 -116.772937 321 14007ft 203kts
12-Nov-20 15:40 36.877852 -116.812113 321 14008ft 203kts
12-Nov-20 15:41 36.924852 -116.851462 322 14009ft 204kts
12-Nov-20 15:42 36.972517 -116.891388 322 14011ft 208kts
12-Nov-20 15:43 37.020893 -116.931977 322 14011ft 210kts
12-Nov-20 15:44 37.069400 -116.972748 322 14013ft 210kts
12-Nov-20 15:45 37.117790 -117.013485 322 14014ft 210kts
12-Nov-20 15:46 37.166280 -117.054368 322 14015ft 210kts
12-Nov-20 15:47 37.214685 -117.095242 322 14008ft 210kts
12-Nov-20 15:48 37.263105 -117.136211 322 14006ft 210kts
12-Nov-20 15:49 37.311491 -117.177191 322 14007ft 210kts
12-Nov-20 15:50 37.360033 -117.218384 323 14008ft 210kts
12-Nov-20 15:51 37.408369 -117.259480 323 14016ft 210kts
12-Nov-20 15:52 37.456735 -117.300628 323 14044ft 209kts
12-Nov-20 15:53 37.505200 -117.341944 323 14045ft 211kts
12-Nov-20 15:54 37.553623 -117.383303 323 14046ft 211kts
12-Nov-20 15:55 37.602238 -117.424868 323 14046ft 211kts
12-Nov-20 15:56 37.650717 -117.466419 323 14043ft 211kts
12-Nov-20 15:57 37.699402 -117.508159 323 14043ft 211kts
12-Nov-20 15:58 37.748119 -117.550017 323 14043ft 211kts
12-Nov-20 15:59 37.796667 -117.591812 324 14043ft 211kts
12-Nov-20 16:00 37.845210 -117.633668 324 14043ft 212kts
12-Nov-20 16:02 37.893993 -117.675795 323 14043ft 212kts
12-Nov-20 16:03 37.942646 -117.717890 323 14042ft 212kts
12-Nov-20 16:04 37.991406 -117.760131 323 14042ft 212kts
12-Nov-20 16:05 38.035635 -117.809270 315 14040ft 211kts
12-Nov-20 16:06 38.078279 -117.860340 314 14040ft 211kts
12-Nov-20 16:07 38.121062 -117.911711 314 14039ft 211kts
12-Nov-20 16:08 38.163622 -117.962791 313 14040ft 210kts
12-Nov-20 16:09 38.205322 -118.013138 313 14038ft 204kts
12-Nov-20 16:10 38.246497 -118.062837 313 14037ft 203kts
12-Nov-20 16:11 38.287396 -118.112277 313 14037ft 203kts
12-Nov-20 16:12 38.328387 -118.161914 313 14045ft 203kts
12-Nov-20 16:13 38.369210 -118.211421 313 14045ft 203kts
12-Nov-20 16:14 38.410160 -118.261161 313 14043ft 203kts
12-Nov-20 16:15 38.451073 -118.310946 313 14041ft 203kts
12-Nov-20 16:16 38.491829 -118.360619 313 14038ft 203kts
12-Nov-20 16:17 38.532671 -118.410475 313 14037ft 203kts
12-Nov-20 16:17 38.566567 -118.451923 313 14036ft 203kts
12-Nov-20 16:19 38.614052 -118.510070 312 14036ft 202kts
12-Nov-20 16:19 38.647852 -118.551539 312 14036ft 202kts
12-Nov-20 16:21 38.695249 -118.609777 312 14036ft 202kts
12-Nov-20 16:21 38.729183 -118.651543 312 14038ft 202kts
12-Nov-20 16:23 38.776512 -118.709866 312 14039ft 203kts
12-Nov-20 16:23 38.810351 -118.751672 312 14040ft 203kts
12-Nov-20 16:24 38.851043 -118.801989 311 14041ft 203kts
12-Nov-20 16:25 38.891673 -118.852331 311 14041ft 203kts
12-Nov-20 16:26 38.932126 -118.902531 311 14043ft 203kts
12-Nov-20 16:27 38.972715 -118.952973 311 14047ft 202kts
12-Nov-20 16:28 39.013082 -119.003240 311 14046ft 202kts
12-Nov-20 16:29 39.053373 -119.053481 311 14045ft 202kts
12-Nov-20 16:30 39.093762 -119.103929 311 14046ft 202kts
12-Nov-20 16:31 39.133926 -119.154176 311 14045ft 201kts
12-Nov-20 16:32 39.173934 -119.204323 311 14045ft 201kts
12-Nov-20 16:33 39.214138 -119.254792 311 14014ft 201kts
12-Nov-20 16:34 39.254135 -119.305100 311 14013ft 201kts
12-Nov-20 16:35 39.294175 -119.355569 311 14012ft 201kts
12-Nov-20 16:36 39.334012 -119.405862 311 14011ft 200kts
12-Nov-20 16:37 39.373772 -119.456139 311 14010ft 200kts
12-Nov-20 16:38 39.413564 -119.506523 310 14008ft 200kts
12-Nov-20 16:39 39.452175 -119.555389 310 13999ft 177kts
12-Nov-20 16:40 39.486582 -119.595120 313 13473ft 160kts
12-Nov-20 16:41 39.519030 -119.630764 313 12460ft 145kts
12-Nov-20 16:42 39.549710 -119.664071 312 11459ft 144kts
12-Nov-20 16:43 39.579088 -119.696967 312 10280ft 128kts
12-Nov-20 16:44 39.591401 -119.731011 237 8362ft 101kts
12-Nov-20 16:45 39.573626 -119.754495 205 6518ft 90kts
12-Nov-20 16:46 39.549318 -119.763002 191 5636ft 98kts
12-Nov-20 16:47 39.523271 -119.766668 180 4813ft 92kts
12-Nov-20 16:48 39.504694 -119.766727 179 4418ft 33kts
12-Nov-20 16:49 39.502882 -119.765870 88 4418ft 0kts
12-Nov-20 16:50 39.500848 -119.765165 88 4418ft 6kts
12-Nov-20 16:51 39.501352 -119.764519 358 4418ft 0kts
12-Nov-20 16:52 39.501352 -119.764519 358 4418ft 0kts
12-Nov-20 16:53 39.501352 -119.764519 358 4418ft 0kts
12-Nov-20 16:54 39.501352 -119.764519 358 4418ft 0kts
12-Nov-20 16:55 39.501352 -119.764519 358 4418ft 0kts
12-Nov-20 16:56 39.501352 -119.764519 358 4418ft 0kts
12-Nov-20 16:57 39.501352 -119.764519 358 4418ft 0kts
12-Nov-20 16:58 39.501352 -119.764519 358 4418ft 0kts
12-Nov-20 16:59 39.501352 -119.764519 358 4418ft 0kts
12-Nov-20 17:00 39.501352 -119.764519 358 4418ft 0kts
12-Nov-20 17:01 39.501352 -119.764519 358 4418ft 0kts
12-Nov-20 17:02 39.501352 -119.764519 358 4418ft 0kts

Navigation Log

Ident Type
Flight plan parsing failed, navigation log unavailable